ADDS TAF Board (Experimental) INFO

IDs: Format: Expanded Condensed

Updated at: 0132 UTC 25 Nov 2014

KSAN - San Diego Intl Arpt, CA, US

Issued at 2331 UTC 24 Nov 2014
Time0051Z25/02Z25/03Z25/04Z25/05Z25/06Z25/07Z25/08Z25/09Z25/10Z25/11Z25/12Z25/13Z25/14Z
TypeOBSPRVLPRVLPRVLPRVLPRVLPRVLPRVLPRVLPRVLPRVLPRVLPRVLPRVL
VIS10>6>6>6>6>6>6>6>6>6>6>6>6>6
CIG----------------------------
CoverFEWSKCSKCSKCSKCSKCSKCSKCSKCSKCSKCSKCSKCSKC
FltCat--VFRVFRVFRVFRVFRVFRVFRVFRVFRVFRVFRVFRVFR
WX----------------------------
WDir10VRBVRBVRBVRBVRBVRBVRBVRBVRBVRBVRBVRBVRB
WSpd64444444444444
WGst----------------------------
R09/27
XWnd6VRBVRBVRBVRBVRBVRBVRBVRBVRBVRBVRBVRBVRB
HWnd-1VRBVRBVRBVRBVRBVRBVRBVRBVRBVRBVRBVRBVRB
Raw TAF
KSAN 242331Z 2500/2606 31009KT P6SM FEW250
  FM250100 VRB04KT P6SM SKC
  FM252100 29008KT P6SM SKC
  FM260100 VRB04KT P6SM SKC


Raw METAR
KSAN 250051Z 01006KT 10SM FEW250 22/M02 A3020 RMK AO2 SLP227 T02171017

TAF Board Legend

Hazard VFR MVFR IFR LIFR
Visibility (sm) >5 3≤X≤5 1≤X<3 <1
Ceiling (100 ft) >30 10≤X≤30 5≤X<10 <5
Wind Speed (kt) <10 10≤X<20 20≤X<30 ≥30
Wind Gust (kt) <15 15≤X<25 25≤X<35 ≥35
Weather No Wx Reported VCTS,-TS,-FZRA TS,FZRA +TS,+FZRA


Page loaded:  01:32 UTC  |   05:32 PM Pacific  |   06:32 PM Mountain  |   07:32 PM Central  |   08:32 PM Eastern

 

ADVISORIES

FORECASTS

FORECASTS

OBSERVATIONS

USER TOOLS

ABOUT US